sensor_id;sensor_type;location;lat;lon;timestamp;pressure;altitude;pressure_sealevel;temperature;humidity
62592;BME280;48659;41.622;2.276;2024-02-26T00:01:06;98148.28;;;14.13;45.42
62592;BME280;48659;41.622;2.276;2024-02-26T00:03:34;98150.00;;;13.69;45.80
62592;BME280;48659;41.622;2.276;2024-02-26T00:06:01;98152.72;;;13.70;46.28
62592;BME280;48659;41.622;2.276;2024-02-26T00:08:41;98143.37;;;14.23;45.52
62592;BME280;48659;41.622;2.276;2024-02-26T00:11:09;98149.81;;;11.98;50.22
62592;BME280;48659;41.622;2.276;2024-02-26T00:13:38;98142.03;;;13.93;45.23
62592;BME280;48659;41.622;2.276;2024-02-26T00:16:06;98136.19;;;14.14;45.30
62592;BME280;48659;41.622;2.276;2024-02-26T00:18:38;98142.76;;;13.06;46.04
62592;BME280;48659;41.622;2.276;2024-02-26T00:21:06;98135.60;;;14.22;45.25
62592;BME280;48659;41.622;2.276;2024-02-26T00:23:38;98137.08;;;13.68;45.69
62592;BME280;48659;41.622;2.276;2024-02-26T00:26:05;98137.76;;;13.78;45.77
62592;BME280;48659;41.622;2.276;2024-02-26T00:28:39;98133.04;;;13.17;46.14
62592;BME280;48659;41.622;2.276;2024-02-26T00:31:07;98129.82;;;14.17;45.44
62592;BME280;48659;41.622;2.276;2024-02-26T00:33:38;98129.98;;;13.64;45.64
62592;BME280;48659;41.622;2.276;2024-02-26T00:36:05;98126.74;;;13.63;45.81
62592;BME280;48659;41.622;2.276;2024-02-26T00:38:33;98124.83;;;13.77;46.12
62592;BME280;48659;41.622;2.276;2024-02-26T00:41:00;98119.32;;;13.85;46.82
62592;BME280;48659;41.622;2.276;2024-02-26T00:43:28;98116.40;;;13.97;46.97
62592;BME280;48659;41.622;2.276;2024-02-26T00:45:56;98112.79;;;13.73;47.34
62592;BME280;48659;41.622;2.276;2024-02-26T00:48:23;98113.43;;;13.57;47.77
62592;BME280;48659;41.622;2.276;2024-02-26T00:50:51;98115.21;;;13.53;48.23
62592;BME280;48659;41.622;2.276;2024-02-26T00:53:18;98118.01;;;13.78;47.82
62592;BME280;48659;41.622;2.276;2024-02-26T00:55:45;98121.24;;;9.86;54.93
62592;BME280;48659;41.622;2.276;2024-02-26T00:58:12;98123.89;;;11.28;53.82
62592;BME280;48659;41.622;2.276;2024-02-26T01:00:39;98119.31;;;11.43;53.80
62592;BME280;48659;41.622;2.276;2024-02-26T01:03:07;98114.08;;;11.91;53.03
62592;BME280;48659;41.622;2.276;2024-02-26T01:05:34;98107.22;;;10.02;55.24
62592;BME280;48659;41.622;2.276;2024-02-26T01:08:02;98104.61;;;12.45;52.69
62592;BME280;48659;41.622;2.276;2024-02-26T01:10:29;98102.25;;;10.12;55.47
62592;BME280;48659;41.622;2.276;2024-02-26T01:12:57;98094.70;;;12.55;51.20
62592;BME280;48659;41.622;2.276;2024-02-26T01:15:24;98111.76;;;12.50;52.23
62592;BME280;48659;41.622;2.276;2024-02-26T01:17:52;98112.46;;;12.05;52.28
62592;BME280;48659;41.622;2.276;2024-02-26T01:20:19;98114.99;;;12.39;51.43
62592;BME280;48659;41.622;2.276;2024-02-26T01:22:47;98102.99;;;12.31;49.44
62592;BME280;48659;41.622;2.276;2024-02-26T01:25:14;98105.22;;;13.09;49.36
62592;BME280;48659;41.622;2.276;2024-02-26T01:27:42;98108.76;;;12.81;48.64
62592;BME280;48659;41.622;2.276;2024-02-26T01:30:10;98117.62;;;13.04;50.14
62592;BME280;48659;41.622;2.276;2024-02-26T01:32:39;98123.61;;;12.85;49.04
62592;BME280;48659;41.622;2.276;2024-02-26T01:35:06;98122.25;;;13.61;48.66
62592;BME280;48659;41.622;2.276;2024-02-26T01:37:38;98120.55;;;13.32;47.86
62592;BME280;48659;41.622;2.276;2024-02-26T01:40:07;98126.21;;;13.79;47.61
62592;BME280;48659;41.622;2.276;2024-02-26T01:42:39;98117.32;;;13.26;47.79
62592;BME280;48659;41.622;2.276;2024-02-26T01:45:09;98116.56;;;13.80;47.80
62592;BME280;48659;41.622;2.276;2024-02-26T01:47:40;98118.22;;;13.81;46.70
62592;BME280;48659;41.622;2.276;2024-02-26T01:50:08;98122.64;;;13.68;46.70
62592;BME280;48659;41.622;2.276;2024-02-26T01:52:38;98124.42;;;12.05;49.64
62592;BME280;48659;41.622;2.276;2024-02-26T01:55:06;98129.42;;;11.60;53.14
62592;BME280;48659;41.622;2.276;2024-02-26T01:57:37;98117.77;;;12.53;49.34
62592;BME280;48659;41.622;2.276;2024-02-26T02:00:05;98120.55;;;13.35;48.18
62592;BME280;48659;41.622;2.276;2024-02-26T02:02:34;98113.75;;;14.17;46.44
62592;BME280;48659;41.622;2.276;2024-02-26T02:05:03;98111.76;;;14.15;46.65
62592;BME280;48659;41.622;2.276;2024-02-26T02:07:38;98116.22;;;13.44;46.53
62592;BME280;48659;41.622;2.276;2024-02-26T02:10:07;98117.31;;;14.91;46.24
62592;BME280;48659;41.622;2.276;2024-02-26T02:12:38;98119.41;;;13.49;47.23
62592;BME280;48659;41.622;2.276;2024-02-26T02:15:06;98120.88;;;13.92;47.36
62592;BME280;48659;41.622;2.276;2024-02-26T02:17:38;98115.89;;;11.35;52.60
62592;BME280;48659;41.622;2.276;2024-02-26T02:20:09;98113.58;;;12.64;49.85
62592;BME280;48659;41.622;2.276;2024-02-26T02:22:36;98116.08;;;13.30;48.02
62592;BME280;48659;41.622;2.276;2024-02-26T02:25:03;98117.93;;;13.62;48.42
62592;BME280;48659;41.622;2.276;2024-02-26T02:27:38;98123.17;;;13.00;49.09
62592;BME280;48659;41.622;2.276;2024-02-26T02:30:07;98123.71;;;13.90;48.35
62592;BME280;48659;41.622;2.276;2024-02-26T02:32:35;98122.77;;;13.24;48.71
62592;BME280;48659;41.622;2.276;2024-02-26T02:35:05;98123.27;;;13.08;49.03
62592;BME280;48659;41.622;2.276;2024-02-26T02:37:38;98125.70;;;8.95;58.02
62592;BME280;48659;41.622;2.276;2024-02-26T02:40:06;98130.15;;;11.02;54.41
62592;BME280;48659;41.622;2.276;2024-02-26T02:42:34;98126.98;;;10.07;56.98
62592;BME280;48659;41.622;2.276;2024-02-26T02:45:02;98125.68;;;10.04;59.37
62592;BME280;48659;41.622;2.276;2024-02-26T02:47:37;98124.45;;;10.89;56.77
62592;BME280;48659;41.622;2.276;2024-02-26T02:50:06;98118.25;;;12.00;52.68
62592;BME280;48659;41.622;2.276;2024-02-26T02:52:38;98113.40;;;11.19;52.98
62592;BME280;48659;41.622;2.276;2024-02-26T02:55:06;98100.07;;;12.96;50.33
62592;BME280;48659;41.622;2.276;2024-02-26T02:57:38;98101.56;;;12.63;49.04
62592;BME280;48659;41.622;2.276;2024-02-26T03:00:06;98102.46;;;13.60;48.79
62592;BME280;48659;41.622;2.276;2024-02-26T03:02:37;98102.82;;;12.49;49.42
62592;BME280;48659;41.622;2.276;2024-02-26T03:05:06;98103.05;;;9.55;55.92
62592;BME280;48659;41.622;2.276;2024-02-26T03:07:38;98107.09;;;9.24;58.29
62592;BME280;48659;41.622;2.276;2024-02-26T03:10:06;98099.29;;;10.49;56.30
62592;BME280;48659;41.622;2.276;2024-02-26T03:12:39;98096.92;;;9.84;56.79
62592;BME280;48659;41.622;2.276;2024-02-26T03:15:06;98095.13;;;8.91;60.44
62592;BME280;48659;41.622;2.276;2024-02-26T03:17:34;98087.61;;;10.86;55.87
62592;BME280;48659;41.622;2.276;2024-02-26T03:20:02;98088.70;;;9.70;58.18
62592;BME280;48659;41.622;2.276;2024-02-26T03:22:39;98086.04;;;10.74;56.41
62592;BME280;48659;41.622;2.276;2024-02-26T03:25:08;98081.66;;;9.63;59.36
62592;BME280;48659;41.622;2.276;2024-02-26T03:27:36;98077.69;;;10.39;57.16
62592;BME280;48659;41.622;2.276;2024-02-26T03:30:04;98082.27;;;9.15;59.25
62592;BME280;48659;41.622;2.276;2024-02-26T03:32:38;98075.86;;;9.72;57.92
62592;BME280;48659;41.622;2.276;2024-02-26T03:35:06;98075.31;;;11.75;53.37
62592;BME280;48659;41.622;2.276;2024-02-26T03:37:38;98070.50;;;11.22;52.62
62592;BME280;48659;41.622;2.276;2024-02-26T03:40:07;98065.50;;;12.80;50.71
62592;BME280;48659;41.622;2.276;2024-02-26T03:42:34;98072.23;;;11.42;52.48
62592;BME280;48659;41.622;2.276;2024-02-26T03:45:02;98071.34;;;11.66;52.42
62592;BME280;48659;41.622;2.276;2024-02-26T03:47:40;98067.12;;;12.35;51.39
62592;BME280;48659;41.622;2.276;2024-02-26T03:50:09;98067.17;;;12.16;51.48
62592;BME280;48659;41.622;2.276;2024-02-26T03:52:36;98067.22;;;11.23;52.21
62592;BME280;48659;41.622;2.276;2024-02-26T03:55:04;98069.35;;;12.13;51.56
62592;BME280;48659;41.622;2.276;2024-02-26T03:57:38;98071.89;;;11.55;51.32
62592;BME280;48659;41.622;2.276;2024-02-26T04:00:07;98076.22;;;12.06;51.69
62592;BME280;48659;41.622;2.276;2024-02-26T04:02:38;98065.79;;;11.88;50.54
62592;BME280;48659;41.622;2.276;2024-02-26T04:05:09;98069.07;;;12.57;50.48
62592;BME280;48659;41.622;2.276;2024-02-26T04:07:37;98080.90;;;11.37;52.38
62592;BME280;48659;41.622;2.276;2024-02-26T04:10:09;98086.08;;;11.48;52.16
62592;BME280;48659;41.622;2.276;2024-02-26T04:12:40;98086.02;;;9.02;55.11
62592;BME280;48659;41.622;2.276;2024-02-26T04:15:08;98084.81;;;10.99;53.84
62592;BME280;48659;41.622;2.276;2024-02-26T04:17:39;98087.97;;;10.04;53.91
62592;BME280;48659;41.622;2.276;2024-02-26T04:20:08;98092.93;;;11.38;52.75
62592;BME280;48659;41.622;2.276;2024-02-26T04:22:38;98096.53;;;11.17;52.39
62592;BME280;48659;41.622;2.276;2024-02-26T04:25:05;98093.20;;;12.53;50.74
62592;BME280;48659;41.622;2.276;2024-02-26T04:27:37;98082.72;;;12.35;49.94
62592;BME280;48659;41.622;2.276;2024-02-26T04:30:07;98091.92;;;8.40;58.94
62592;BME280;48659;41.622;2.276;2024-02-26T04:32:34;98094.14;;;8.21;62.48
62592;BME280;48659;41.622;2.276;2024-02-26T04:35:02;98092.80;;;10.47;57.46
62592;BME280;48659;41.622;2.276;2024-02-26T04:37:38;98091.54;;;11.68;53.53
62592;BME280;48659;41.622;2.276;2024-02-26T04:40:07;98087.44;;;9.31;57.25
62592;BME280;48659;41.622;2.276;2024-02-26T04:42:35;98092.38;;;6.79;64.60
62592;BME280;48659;41.622;2.276;2024-02-26T04:45:02;98094.37;;;10.09;58.11
62592;BME280;48659;41.622;2.276;2024-02-26T04:47:31;98095.01;;;10.86;55.24
62592;BME280;48659;41.622;2.276;2024-02-26T04:49:58;98099.22;;;11.54;53.26
62592;BME280;48659;41.622;2.276;2024-02-26T04:52:25;98098.95;;;9.27;57.55
62592;BME280;48659;41.622;2.276;2024-02-26T04:54:53;98108.40;;;10.80;55.48
62592;BME280;48659;41.622;2.276;2024-02-26T04:57:21;98126.46;;;11.56;53.94
62592;BME280;48659;41.622;2.276;2024-02-26T04:59:49;98133.54;;;11.00;52.62
62592;BME280;48659;41.622;2.276;2024-02-26T05:02:16;98138.70;;;11.96;51.66
62592;BME280;48659;41.622;2.276;2024-02-26T05:04:43;98136.01;;;11.39;51.47
62592;BME280;48659;41.622;2.276;2024-02-26T05:07:11;98136.32;;;11.89;51.33
62592;BME280;48659;41.622;2.276;2024-02-26T05:09:40;98133.45;;;11.10;51.99
62592;BME280;48659;41.622;2.276;2024-02-26T05:12:07;98132.01;;;8.02;62.41
62592;BME280;48659;41.622;2.276;2024-02-26T05:14:37;98141.27;;;7.52;63.82
62592;BME280;48659;41.622;2.276;2024-02-26T05:17:05;98142.83;;;8.91;59.88
62592;BME280;48659;41.622;2.276;2024-02-26T05:19:32;98147.78;;;9.28;58.21
62592;BME280;48659;41.622;2.276;2024-02-26T05:21:59;98148.01;;;10.76;54.74
62592;BME280;48659;41.622;2.276;2024-02-26T05:24:26;98149.72;;;11.18;53.50
62592;BME280;48659;41.622;2.276;2024-02-26T05:26:54;98163.61;;;11.27;53.56
62592;BME280;48659;41.622;2.276;2024-02-26T05:29:21;98159.41;;;11.46;52.94
62592;BME280;48659;41.622;2.276;2024-02-26T05:31:50;98170.10;;;9.69;56.88
62592;BME280;48659;41.622;2.276;2024-02-26T05:34:17;98177.83;;;9.71;57.25
62592;BME280;48659;41.622;2.276;2024-02-26T05:36:45;98167.43;;;10.27;54.40
62592;BME280;48659;41.622;2.276;2024-02-26T05:39:12;98159.24;;;10.47;54.79
62592;BME280;48659;41.622;2.276;2024-02-26T05:41:40;98156.23;;;9.34;56.38
62592;BME280;48659;41.622;2.276;2024-02-26T05:44:07;98170.79;;;7.88;61.34
62592;BME280;48659;41.622;2.276;2024-02-26T05:46:34;98174.14;;;7.49;64.68
62592;BME280;48659;41.622;2.276;2024-02-26T05:49:02;98158.75;;;9.37;59.64
62592;BME280;48659;41.622;2.276;2024-02-26T05:51:37;98155.01;;;8.86;59.34
62592;BME280;48659;41.622;2.276;2024-02-26T05:54:05;98165.17;;;8.08;60.95
62592;BME280;48659;41.622;2.276;2024-02-26T05:56:33;98179.22;;;6.55;65.76
62592;BME280;48659;41.622;2.276;2024-02-26T05:59:00;98177.81;;;7.58;65.27
62592;BME280;48659;41.622;2.276;2024-02-26T06:01:27;98175.94;;;8.15;64.51
62592;BME280;48659;41.622;2.276;2024-02-26T06:03:54;98179.38;;;9.52;59.86
62592;BME280;48659;41.622;2.276;2024-02-26T06:06:22;98189.99;;;7.99;63.42
62592;BME280;48659;41.622;2.276;2024-02-26T06:08:49;98187.83;;;6.80;66.71
62592;BME280;48659;41.622;2.276;2024-02-26T06:11:16;98183.08;;;8.78;60.64
62592;BME280;48659;41.622;2.276;2024-02-26T06:13:44;98185.84;;;6.52;65.18
62592;BME280;48659;41.622;2.276;2024-02-26T06:16:11;98182.12;;;7.77;65.21
62592;BME280;48659;41.622;2.276;2024-02-26T06:18:39;98178.41;;;7.95;63.68
62592;BME280;48659;41.622;2.276;2024-02-26T06:21:09;98195.84;;;8.48;63.05
62592;BME280;48659;41.622;2.276;2024-02-26T06:23:37;98199.43;;;8.40;61.51
62592;BME280;48659;41.622;2.276;2024-02-26T06:26:04;98205.44;;;8.97;60.72
62592;BME280;48659;41.622;2.276;2024-02-26T06:28:38;98212.60;;;6.18;68.50
62592;BME280;48659;41.622;2.276;2024-02-26T06:31:05;98201.46;;;8.49;62.55
62592;BME280;48659;41.622;2.276;2024-02-26T06:33:39;98201.40;;;7.97;62.25
62592;BME280;48659;41.622;2.276;2024-02-26T06:36:07;98192.51;;;8.96;61.52
62592;BME280;48659;41.622;2.276;2024-02-26T06:38:37;98203.61;;;9.16;64.15
62592;BME280;48659;41.622;2.276;2024-02-26T06:41:04;98202.19;;;7.20;65.53
62592;BME280;48659;41.622;2.276;2024-02-26T06:43:39;98201.76;;;6.34;68.69
62592;BME280;48659;41.622;2.276;2024-02-26T06:46:06;98203.79;;;7.63;68.16
62592;BME280;48659;41.622;2.276;2024-02-26T06:48:34;98196.59;;;8.76;63.67
62592;BME280;48659;41.622;2.276;2024-02-26T06:51:02;98206.16;;;8.79;63.06
62592;BME280;48659;41.622;2.276;2024-02-26T06:53:30;98203.55;;;9.62;60.17
62592;BME280;48659;41.622;2.276;2024-02-26T06:55:58;98197.27;;;9.82;59.95
62592;BME280;48659;41.622;2.276;2024-02-26T06:58:25;98189.81;;;9.98;59.35
62592;BME280;48659;41.622;2.276;2024-02-26T07:00:53;98189.14;;;8.98;60.68
62592;BME280;48659;41.622;2.276;2024-02-26T07:03:21;98186.80;;;10.81;56.35
62592;BME280;48659;41.622;2.276;2024-02-26T07:05:48;98197.07;;;8.94;59.60
62592;BME280;48659;41.622;2.276;2024-02-26T07:08:16;98193.96;;;10.93;55.69
62592;BME280;48659;41.622;2.276;2024-02-26T07:10:43;98186.87;;;11.65;53.49
62592;BME280;48659;41.622;2.276;2024-02-26T07:13:11;98205.41;;;11.13;53.99
62592;BME280;48659;41.622;2.276;2024-02-26T07:15:39;98197.83;;;10.43;54.39
62592;BME280;48659;41.622;2.276;2024-02-26T07:18:07;98198.20;;;10.66;56.75
62592;BME280;48659;41.622;2.276;2024-02-26T07:20:42;98202.25;;;10.08;56.00
62592;BME280;48659;41.622;2.276;2024-02-26T07:23:09;98195.10;;;11.83;53.83
62592;BME280;48659;41.622;2.276;2024-02-26T07:25:38;98195.47;;;11.23;53.59
62592;BME280;48659;41.622;2.276;2024-02-26T07:28:05;98197.72;;;11.56;53.10
62592;BME280;48659;41.622;2.276;2024-02-26T07:30:39;98197.33;;;11.27;52.78
62592;BME280;48659;41.622;2.276;2024-02-26T07:33:06;98191.63;;;12.12;52.01
62592;BME280;48659;41.622;2.276;2024-02-26T07:35:34;98185.15;;;11.74;52.08
62592;BME280;48659;41.622;2.276;2024-02-26T07:38:02;98183.36;;;11.34;52.19
62592;BME280;48659;41.622;2.276;2024-02-26T07:40:44;98184.96;;;12.54;51.63
62592;BME280;48659;41.622;2.276;2024-02-26T07:43:12;98180.89;;;9.21;59.06
62592;BME280;48659;41.622;2.276;2024-02-26T07:45:40;98193.29;;;7.51;66.74
62592;BME280;48659;41.622;2.276;2024-02-26T07:48:08;98193.23;;;9.64;60.49
62592;BME280;48659;41.622;2.276;2024-02-26T07:50:42;98202.25;;;10.05;56.61
62592;BME280;48659;41.622;2.276;2024-02-26T07:53:09;98206.27;;;11.69;54.00
62592;BME280;48659;41.622;2.276;2024-02-26T07:55:36;98213.18;;;10.96;53.75
62592;BME280;48659;41.622;2.276;2024-02-26T07:58:04;98210.45;;;12.00;52.72
62592;BME280;48659;41.622;2.276;2024-02-26T08:00:38;98209.63;;;11.29;54.10
62592;BME280;48659;41.622;2.276;2024-02-26T08:03:05;98210.03;;;10.38;57.29
62592;BME280;48659;41.622;2.276;2024-02-26T08:05:37;98215.03;;;9.88;58.32
62592;BME280;48659;41.622;2.276;2024-02-26T08:08:06;98215.61;;;8.09;64.60
62592;BME280;48659;41.622;2.276;2024-02-26T08:10:38;98216.01;;;8.64;62.66
62592;BME280;48659;41.622;2.276;2024-02-26T08:13:06;98211.74;;;8.84;62.91
62592;BME280;48659;41.622;2.276;2024-02-26T08:15:34;98219.70;;;9.75;60.40
62592;BME280;48659;41.622;2.276;2024-02-26T08:18:03;98223.86;;;11.97;55.09
62592;BME280;48659;41.622;2.276;2024-02-26T08:20:31;98231.61;;;12.44;53.31
62592;BME280;48659;41.622;2.276;2024-02-26T08:22:59;98235.98;;;9.99;58.39
62592;BME280;48659;41.622;2.276;2024-02-26T08:25:26;98242.73;;;10.46;57.96
62592;BME280;48659;41.622;2.276;2024-02-26T08:27:53;98244.91;;;10.60;56.38
62592;BME280;48659;41.622;2.276;2024-02-26T08:30:21;98244.07;;;11.26;55.56
62592;BME280;48659;41.622;2.276;2024-02-26T08:32:48;98246.66;;;12.93;52.23
62592;BME280;48659;41.622;2.276;2024-02-26T08:35:16;98237.81;;;12.95;51.88
62592;BME280;48659;41.622;2.276;2024-02-26T08:37:44;98231.91;;;10.59;53.78
62592;BME280;48659;41.622;2.276;2024-02-26T08:40:12;98225.73;;;12.28;52.45
62592;BME280;48659;41.622;2.276;2024-02-26T08:42:40;98218.04;;;13.15;50.78
62592;BME280;48659;41.622;2.276;2024-02-26T08:45:08;98214.87;;;14.21;49.06
62592;BME280;48659;41.622;2.276;2024-02-26T08:47:37;98214.11;;;13.46;47.13
62592;BME280;48659;41.622;2.276;2024-02-26T08:50:05;98213.99;;;13.65;50.38
62592;BME280;48659;41.622;2.276;2024-02-26T08:52:37;98214.68;;;12.36;49.88
62592;BME280;48659;41.622;2.276;2024-02-26T08:55:05;98210.08;;;12.13;51.51
62592;BME280;48659;41.622;2.276;2024-02-26T08:57:33;98205.07;;;10.32;54.17
62592;BME280;48659;41.622;2.276;2024-02-26T09:00:00;98206.97;;;11.42;53.56
62592;BME280;48659;41.622;2.276;2024-02-26T09:02:28;98198.58;;;11.37;53.37
62592;BME280;48659;41.622;2.276;2024-02-26T09:04:55;98194.46;;;12.38;50.11
62592;BME280;48659;41.622;2.276;2024-02-26T09:07:22;98185.90;;;9.80;54.02
62592;BME280;48659;41.622;2.276;2024-02-26T09:09:50;98182.64;;;11.63;51.51
62592;BME280;48659;41.622;2.276;2024-02-26T09:12:17;98185.87;;;10.58;54.33
62592;BME280;48659;41.622;2.276;2024-02-26T09:14:45;98182.76;;;9.19;54.76
62592;BME280;48659;41.622;2.276;2024-02-26T09:17:12;98177.40;;;11.81;51.18
62592;BME280;48659;41.622;2.276;2024-02-26T09:19:40;98177.20;;;11.40;49.86
62592;BME280;48659;41.622;2.276;2024-02-26T09:22:07;98178.66;;;12.89;48.06
62592;BME280;48659;41.622;2.276;2024-02-26T09:24:35;98185.05;;;12.06;48.01
62592;BME280;48659;41.622;2.276;2024-02-26T09:27:03;98194.76;;;14.06;44.85
62592;BME280;48659;41.622;2.276;2024-02-26T09:29:32;98197.68;;;13.06;46.53
62592;BME280;48659;41.622;2.276;2024-02-26T09:31:59;98196.14;;;13.08;46.99
62592;BME280;48659;41.622;2.276;2024-02-26T09:34:27;98201.17;;;13.17;45.42
62592;BME280;48659;41.622;2.276;2024-02-26T09:36:54;98207.88;;;11.95;47.65
62592;BME280;48659;41.622;2.276;2024-02-26T09:39:21;98205.23;;;11.82;47.29
62592;BME280;48659;41.622;2.276;2024-02-26T09:41:48;98194.19;;;10.92;49.79
62592;BME280;48659;41.622;2.276;2024-02-26T09:44:19;98195.08;;;12.53;48.19
62592;BME280;48659;41.622;2.276;2024-02-26T09:46:47;98197.67;;;11.01;47.48
62592;BME280;48659;41.622;2.276;2024-02-26T09:49:16;98198.85;;;11.26;48.58
62592;BME280;48659;41.622;2.276;2024-02-26T09:51:44;98193.46;;;11.68;46.08
62592;BME280;48659;41.622;2.276;2024-02-26T09:54:13;98191.02;;;11.48;49.03
62592;BME280;48659;41.622;2.276;2024-02-26T09:56:42;98194.75;;;12.63;45.83
62592;BME280;48659;41.622;2.276;2024-02-26T09:59:13;98196.69;;;14.06;43.28
62592;BME280;48659;41.622;2.276;2024-02-26T10:01:44;98199.67;;;14.02;41.40
62592;BME280;48659;41.622;2.276;2024-02-26T10:04:12;98195.89;;;15.63;40.71
62592;BME280;48659;41.622;2.276;2024-02-26T10:06:40;98187.45;;;14.79;41.39
62592;BME280;48659;41.622;2.276;2024-02-26T10:09:09;98184.19;;;16.14;40.35
62592;BME280;48659;41.622;2.276;2024-02-26T10:11:38;98192.19;;;14.59;41.08
62592;BME280;48659;41.622;2.276;2024-02-26T10:14:07;98185.43;;;15.51;41.11
62592;BME280;48659;41.622;2.276;2024-02-26T10:16:35;98178.30;;;13.96;42.43
62592;BME280;48659;41.622;2.276;2024-02-26T10:19:02;98174.49;;;12.45;46.13
62592;BME280;48659;41.622;2.276;2024-02-26T10:21:41;98170.23;;;13.15;45.70
62592;BME280;48659;41.622;2.276;2024-02-26T10:24:13;98162.40;;;14.20;43.19
62592;BME280;48659;41.622;2.276;2024-02-26T10:26:46;98164.68;;;15.16;40.87
62592;BME280;48659;41.622;2.276;2024-02-26T10:29:13;98163.87;;;15.71;40.64
62592;BME280;48659;41.622;2.276;2024-02-26T10:31:42;98158.76;;;14.23;42.97
62592;BME280;48659;41.622;2.276;2024-02-26T10:34:09;98164.27;;;13.53;44.78
62592;BME280;48659;41.622;2.276;2024-02-26T10:36:37;98162.02;;;14.09;43.18
62592;BME280;48659;41.622;2.276;2024-02-26T10:39:05;98167.57;;;14.02;44.11
62592;BME280;48659;41.622;2.276;2024-02-26T10:41:39;98168.66;;;13.84;42.82
62592;BME280;48659;41.622;2.276;2024-02-26T10:44:09;98171.93;;;14.96;42.08
62592;BME280;48659;41.622;2.276;2024-02-26T10:46:37;98170.16;;;15.74;40.81
62592;BME280;48659;41.622;2.276;2024-02-26T10:49:04;98167.97;;;16.35;39.29
62592;BME280;48659;41.622;2.276;2024-02-26T10:51:39;98168.94;;;16.71;38.84
62592;BME280;48659;41.622;2.276;2024-02-26T10:54:09;98167.40;;;15.10;40.20
62592;BME280;48659;41.622;2.276;2024-02-26T10:56:39;98168.24;;;13.78;40.85
62592;BME280;48659;41.622;2.276;2024-02-26T10:59:09;98159.82;;;15.69;38.93
62592;BME280;48659;41.622;2.276;2024-02-26T11:01:36;98162.60;;;16.57;37.00
62592;BME280;48659;41.622;2.276;2024-02-26T11:04:04;98160.81;;;16.38;37.87
62592;BME280;48659;41.622;2.276;2024-02-26T11:06:40;98161.94;;;15.79;37.09
62592;BME280;48659;41.622;2.276;2024-02-26T11:09:08;98162.22;;;16.14;37.34
62592;BME280;48659;41.622;2.276;2024-02-26T11:11:39;98156.88;;;15.94;37.33
62592;BME280;48659;41.622;2.276;2024-02-26T11:14:08;98144.96;;;15.12;38.37
62592;BME280;48659;41.622;2.276;2024-02-26T11:16:39;98144.32;;;14.83;39.53
62592;BME280;48659;41.622;2.276;2024-02-26T11:19:09;98148.48;;;13.72;37.53
62592;BME280;48659;41.622;2.276;2024-02-26T11:21:37;98141.19;;;12.61;37.72
62592;BME280;48659;41.622;2.276;2024-02-26T11:24:05;98131.47;;;15.03;37.73
62592;BME280;48659;41.622;2.276;2024-02-26T11:26:42;98128.05;;;14.90;36.25
62592;BME280;48659;41.622;2.276;2024-02-26T11:29:11;98139.20;;;14.02;37.42
62592;BME280;48659;41.622;2.276;2024-02-26T11:31:39;98137.50;;;14.07;37.32
62592;BME280;48659;41.622;2.276;2024-02-26T11:34:08;98129.80;;;14.21;36.35
62592;BME280;48659;41.622;2.276;2024-02-26T11:36:39;98133.93;;;12.00;39.12
62592;BME280;48659;41.622;2.276;2024-02-26T11:39:08;98140.45;;;12.38;39.50
62592;BME280;48659;41.622;2.276;2024-02-26T11:41:36;98134.68;;;13.12;39.68
62592;BME280;48659;41.622;2.276;2024-02-26T11:44:04;98133.52;;;13.93;39.86
62592;BME280;48659;41.622;2.276;2024-02-26T11:46:40;98141.69;;;13.55;37.62
62592;BME280;48659;41.622;2.276;2024-02-26T11:49:31;98142.01;;;11.98;40.66
62592;BME280;48659;41.622;2.276;2024-02-26T11:51:59;98134.23;;;12.57;40.34
62592;BME280;48659;41.622;2.276;2024-02-26T11:54:58;98131.42;;;12.61;40.24
62592;BME280;48659;41.622;2.276;2024-02-26T11:57:27;98129.12;;;12.79;40.11
62592;BME280;48659;41.622;2.276;2024-02-26T11:59:57;98124.06;;;13.77;38.46
62592;BME280;48659;41.622;2.276;2024-02-26T12:02:41;98129.05;;;14.12;35.98
62592;BME280;48659;41.622;2.276;2024-02-26T12:05:13;98104.70;;;15.42;33.22
62592;BME280;48659;41.622;2.276;2024-02-26T12:07:46;98118.80;;;12.69;37.52
62592;BME280;48659;41.622;2.276;2024-02-26T12:10:17;98117.41;;;15.36;34.52
62592;BME280;48659;41.622;2.276;2024-02-26T12:12:49;98108.33;;;14.48;33.87
62592;BME280;48659;41.622;2.276;2024-02-26T12:15:19;98103.89;;;14.97;34.19
62592;BME280;48659;41.622;2.276;2024-02-26T12:17:50;98095.47;;;14.44;34.73
62592;BME280;48659;41.622;2.276;2024-02-26T12:20:18;98100.62;;;13.96;35.52
62592;BME280;48659;41.622;2.276;2024-02-26T12:22:47;98091.48;;;14.41;34.62
62592;BME280;48659;41.622;2.276;2024-02-26T12:25:14;98091.75;;;14.83;34.36
62592;BME280;48659;41.622;2.276;2024-02-26T12:27:42;98084.02;;;14.03;35.13
62592;BME280;48659;41.622;2.276;2024-02-26T12:30:10;98085.41;;;13.74;35.52
62592;BME280;48659;41.622;2.276;2024-02-26T12:32:38;98086.22;;;14.36;33.94
62592;BME280;48659;41.622;2.276;2024-02-26T12:35:06;98078.42;;;15.16;33.83
62592;BME280;48659;41.622;2.276;2024-02-26T12:37:34;98079.46;;;14.27;34.14
62592;BME280;48659;41.622;2.276;2024-02-26T12:40:03;98072.65;;;14.53;34.77
62592;BME280;48659;41.622;2.276;2024-02-26T12:42:39;98062.51;;;13.75;34.99
62592;BME280;48659;41.622;2.276;2024-02-26T12:45:08;98060.15;;;12.78;36.59
62592;BME280;48659;41.622;2.276;2024-02-26T12:47:40;98063.49;;;12.07;38.05
62592;BME280;48659;41.622;2.276;2024-02-26T12:50:08;98056.38;;;13.42;37.13
62592;BME280;48659;41.622;2.276;2024-02-26T12:52:37;98063.28;;;12.57;38.66
62592;BME280;48659;41.622;2.276;2024-02-26T12:55:06;98054.52;;;13.88;37.61
62592;BME280;48659;41.622;2.276;2024-02-26T12:57:36;98044.63;;;14.64;34.87
62592;BME280;48659;41.622;2.276;2024-02-26T13:00:06;98042.46;;;14.06;33.97
62592;BME280;48659;41.622;2.276;2024-02-26T13:02:41;98044.90;;;12.19;36.70
62592;BME280;48659;41.622;2.276;2024-02-26T13:05:10;98042.76;;;13.97;35.12
62592;BME280;48659;41.622;2.276;2024-02-26T13:07:41;98042.51;;;13.39;35.05
62592;BME280;48659;41.622;2.276;2024-02-26T13:10:10;98041.60;;;15.12;33.14
62592;BME280;48659;41.622;2.276;2024-02-26T13:12:37;98044.82;;;14.67;32.88